createdAt,value
2023-05-16T00:01:40.185Z,9.30
2023-05-16T00:06:02.695Z,9.30
2023-05-16T00:10:25.074Z,9.40
2023-05-16T00:14:48.191Z,9.50
2023-05-16T00:19:13.089Z,9.50
2023-05-16T00:23:35.218Z,9.50
2023-05-16T00:27:57.681Z,9.50
2023-05-16T00:32:19.618Z,9.40
2023-05-16T00:36:41.539Z,9.30
2023-05-16T00:41:04.628Z,9.20
2023-05-16T00:45:26.599Z,9.10
2023-05-16T00:49:49.000Z,9.10
2023-05-16T00:54:12.287Z,9.10
2023-05-16T00:58:35.675Z,9.10
2023-05-16T01:02:57.949Z,9.10
2023-05-16T01:07:20.318Z,9.00
2023-05-16T01:12:26.917Z,9.00
2023-05-16T01:17:22.100Z,8.90
2023-05-16T01:22:09.654Z,8.80
2023-05-16T01:26:32.834Z,8.70
2023-05-16T01:30:55.702Z,8.70
2023-05-16T01:35:18.993Z,8.60
2023-05-16T01:39:57.875Z,8.50
2023-05-16T01:44:31.886Z,8.50
2023-05-16T01:49:17.293Z,8.50
2023-05-16T01:53:40.075Z,8.40
2023-05-16T01:58:05.213Z,8.30
2023-05-16T02:02:27.094Z,8.30
2023-05-16T02:06:49.371Z,8.30
2023-05-16T02:11:11.860Z,8.40
2023-05-16T02:15:33.965Z,8.70
2023-05-16T02:19:55.963Z,9.00
2023-05-16T02:24:18.005Z,9.30
2023-05-16T02:28:40.172Z,9.60
2023-05-16T02:33:02.452Z,9.80
2023-05-16T02:37:25.514Z,9.90
2023-05-16T02:41:47.479Z,10.00
2023-05-16T02:46:33.497Z,10.10
2023-05-16T02:50:55.748Z,10.10
2023-05-16T02:55:22.410Z,10.20
2023-05-16T02:59:45.942Z,10.30
2023-05-16T03:04:08.568Z,10.30
2023-05-16T03:08:31.373Z,10.30
2023-05-16T03:12:54.264Z,10.30
2023-05-16T03:17:18.100Z,10.30
2023-05-16T03:21:41.153Z,10.40
2023-05-16T03:26:03.575Z,10.40
2023-05-16T03:30:26.481Z,10.30
2023-05-16T03:34:49.049Z,10.30
2023-05-16T03:39:11.844Z,10.30
2023-05-16T03:43:34.283Z,10.40
2023-05-16T03:47:56.661Z,10.40
2023-05-16T03:52:18.855Z,10.60
2023-05-16T03:56:40.996Z,10.70
2023-05-16T04:01:02.955Z,10.80
2023-05-16T04:05:25.300Z,10.90
2023-05-16T04:09:47.621Z,10.90
2023-05-16T04:14:09.732Z,11.00
2023-05-16T04:18:31.832Z,11.10
2023-05-16T04:22:54.179Z,11.10
2023-05-16T04:27:16.275Z,11.10
2023-05-16T04:31:38.118Z,11.10
2023-05-16T04:36:00.398Z,11.10
2023-05-16T04:40:22.719Z,11.10
2023-05-16T04:44:44.980Z,10.90
2023-05-16T04:49:07.092Z,10.80
2023-05-16T04:53:29.244Z,10.90
2023-05-16T04:57:51.180Z,11.10
2023-05-16T05:02:13.099Z,11.30
2023-05-16T05:06:35.488Z,11.70
2023-05-16T05:10:57.469Z,12.00
2023-05-16T05:15:19.712Z,12.10
2023-05-16T05:19:41.968Z,12.30
2023-05-16T05:24:04.623Z,12.30
2023-05-16T05:28:26.970Z,12.20
2023-05-16T05:32:49.220Z,12.30
2023-05-16T05:37:11.598Z,12.30
2023-05-16T05:41:33.927Z,12.40
2023-05-16T05:45:56.637Z,12.30
2023-05-16T05:50:19.313Z,12.30
2023-05-16T05:54:41.238Z,12.10
2023-05-16T05:59:03.528Z,11.80
2023-05-16T06:03:25.924Z,11.30
2023-05-16T06:07:48.116Z,11.00
2023-05-16T06:12:10.726Z,10.80
2023-05-16T06:16:33.019Z,10.70
2023-05-16T06:20:54.803Z,10.70
2023-05-16T06:25:17.176Z,10.80
2023-05-16T06:29:39.467Z,11.20
2023-05-16T06:34:01.723Z,11.50
2023-05-16T06:38:23.556Z,11.50
2023-05-16T06:42:45.700Z,11.30
2023-05-16T06:47:07.795Z,11.10
2023-05-16T06:51:30.140Z,10.90
2023-05-16T06:55:52.051Z,10.70
2023-05-16T07:00:15.279Z,10.70
2023-05-16T07:04:38.214Z,10.80
2023-05-16T07:09:00.839Z,10.90
2023-05-16T07:13:23.118Z,11.20
2023-05-16T07:17:45.172Z,11.40
2023-05-16T07:22:07.492Z,11.60
2023-05-16T07:26:29.469Z,11.60
2023-05-16T07:30:51.905Z,11.60
2023-05-16T07:35:13.703Z,11.60
2023-05-16T07:39:35.786Z,11.80
2023-05-16T07:43:57.952Z,11.70
2023-05-16T07:48:20.323Z,11.80
2023-05-16T07:52:42.352Z,11.70
2023-05-16T07:57:04.885Z,11.60
2023-05-16T08:01:26.783Z,11.60
2023-05-16T08:05:49.703Z,11.70
2023-05-16T08:10:13.454Z,11.80
2023-05-16T08:14:37.312Z,11.70
2023-05-16T08:18:59.604Z,11.80
2023-05-16T08:23:21.567Z,12.00
2023-05-16T08:27:45.633Z,12.00
2023-05-16T08:32:11.212Z,11.90
2023-05-16T08:36:35.762Z,11.90
2023-05-16T08:40:58.010Z,11.70
2023-05-16T08:45:20.353Z,11.60
2023-05-16T08:49:47.216Z,11.70
2023-05-16T08:54:13.721Z,11.70
2023-05-16T08:58:37.181Z,11.80
2023-05-16T09:02:59.529Z,11.90
2023-05-16T09:07:21.525Z,11.90
2023-05-16T09:11:43.739Z,11.90
2023-05-16T09:16:13.780Z,11.90
2023-05-16T09:20:35.680Z,12.10
2023-05-16T09:25:01.067Z,12.20
2023-05-16T09:29:23.148Z,12.50
2023-05-16T09:33:45.147Z,12.70
2023-05-16T09:38:13.660Z,12.70
2023-05-16T09:42:36.026Z,12.80
2023-05-16T09:46:58.347Z,12.70
2023-05-16T09:51:23.730Z,12.60
2023-05-16T09:55:46.123Z,12.60
2023-05-16T10:00:11.929Z,12.60
2023-05-16T10:04:37.369Z,13.00
2023-05-16T10:09:01.723Z,13.50
2023-05-16T10:13:31.002Z,14.00
2023-05-16T10:17:56.752Z,14.10
2023-05-16T10:22:20.336Z,14.10
2023-05-16T10:26:42.164Z,14.00
2023-05-16T10:31:05.580Z,13.80
2023-05-16T10:35:28.226Z,13.80
2023-05-16T10:39:52.292Z,13.90
2023-05-16T10:44:18.362Z,14.10
2023-05-16T10:48:42.596Z,14.60
2023-05-16T10:53:35.839Z,15.00
2023-05-16T10:57:58.082Z,15.30
2023-05-16T11:02:32.558Z,15.40
2023-05-16T11:06:58.266Z,15.20
2023-05-16T11:11:48.994Z,15.60
2023-05-16T11:16:30.702Z,16.80
2023-05-16T11:20:53.345Z,17.70
2023-05-16T11:25:15.304Z,17.40
2023-05-16T11:29:37.576Z,16.80
2023-05-16T11:33:59.592Z,16.00
2023-05-16T11:38:21.482Z,15.20
2023-05-16T11:42:50.223Z,14.50
2023-05-16T11:47:12.929Z,14.00
2023-05-16T11:51:39.095Z,13.90
2023-05-16T11:56:02.417Z,14.00
2023-05-16T12:00:26.717Z,14.30
2023-05-16T12:04:50.761Z,14.60
2023-05-16T12:09:16.885Z,15.00
2023-05-16T12:13:40.717Z,15.00
2023-05-16T12:18:03.692Z,14.70
2023-05-16T12:22:26.359Z,14.60
2023-05-16T12:26:48.491Z,14.70
2023-05-16T12:31:31.167Z,15.00
2023-05-16T12:35:54.792Z,15.50
2023-05-16T12:40:17.185Z,16.20
2023-05-16T12:44:39.462Z,16.50
2023-05-16T12:49:08.426Z,16.70
2023-05-16T12:53:41.378Z,16.00
2023-05-16T12:58:03.869Z,15.30
2023-05-16T13:02:26.334Z,14.70
2023-05-16T13:06:59.344Z,14.10
2023-05-16T13:11:22.201Z,13.60
2023-05-16T13:15:44.789Z,13.40
2023-05-16T13:20:15.532Z,13.50
2023-05-16T13:24:38.396Z,13.60
2023-05-16T13:29:02.437Z,13.60
2023-05-16T13:33:25.028Z,13.30
2023-05-16T13:37:47.109Z,13.00
2023-05-16T13:42:09.739Z,12.80
2023-05-16T13:46:31.759Z,12.80
2023-05-16T13:50:54.339Z,13.00
2023-05-16T13:55:16.628Z,13.40
2023-05-16T14:00:05.761Z,14.30
2023-05-16T14:04:21.875Z,15.00
2023-05-16T14:08:44.294Z,15.60
2023-05-16T14:13:06.574Z,15.20
2023-05-16T14:17:28.753Z,14.60
2023-05-16T14:21:53.011Z,14.50
2023-05-16T14:26:15.730Z,14.60
2023-05-16T14:30:37.884Z,14.80
2023-05-16T14:34:59.928Z,15.00
2023-05-16T14:39:22.043Z,15.20
2023-05-16T14:43:46.308Z,15.40
2023-05-16T14:48:08.853Z,15.40
2023-05-16T14:52:31.116Z,15.50
2023-05-16T14:56:53.161Z,15.80
2023-05-16T15:01:16.876Z,16.50
2023-05-16T15:05:39.313Z,17.00
2023-05-16T15:10:02.100Z,16.40
2023-05-16T15:14:24.357Z,15.50
2023-05-16T15:18:46.808Z,14.60
2023-05-16T15:23:08.837Z,14.10
2023-05-16T15:27:30.656Z,13.70
2023-05-16T15:31:52.825Z,13.50
2023-05-16T15:36:14.943Z,13.60
2023-05-16T15:40:37.158Z,13.80
2023-05-16T15:44:59.443Z,13.90
2023-05-16T15:49:22.009Z,14.10
2023-05-16T15:53:44.938Z,14.30
2023-05-16T15:58:07.200Z,14.20
2023-05-16T16:02:29.468Z,14.20
2023-05-16T16:06:51.431Z,14.20
2023-05-16T16:11:13.580Z,13.90
2023-05-16T16:15:36.283Z,13.80
2023-05-16T16:19:59.420Z,13.70
2023-05-16T16:24:21.436Z,13.60
2023-05-16T16:28:43.837Z,13.40
2023-05-16T16:33:05.748Z,13.10
2023-05-16T16:37:28.033Z,12.80
2023-05-16T16:41:50.373Z,12.60
2023-05-16T16:46:13.676Z,12.50
2023-05-16T16:50:35.973Z,12.60
2023-05-16T16:54:57.978Z,12.70
2023-05-16T16:59:20.081Z,12.70
2023-05-16T17:03:42.777Z,12.80
2023-05-16T17:08:05.316Z,12.80
2023-05-16T17:12:29.023Z,12.80
2023-05-16T17:16:51.756Z,12.80
2023-05-16T17:21:13.729Z,12.70
2023-05-16T17:25:36.277Z,12.60
2023-05-16T17:29:58.558Z,12.50
2023-05-16T17:34:21.254Z,12.40
2023-05-16T17:38:43.531Z,12.30
2023-05-16T17:43:05.817Z,12.20
2023-05-16T17:47:28.247Z,12.10
2023-05-16T17:51:54.298Z,12.10
2023-05-16T17:56:16.703Z,12.00
2023-05-16T18:00:38.764Z,11.90
2023-05-16T18:05:01.059Z,11.80
2023-05-16T18:09:23.318Z,11.60
2023-05-16T18:13:46.581Z,11.30
2023-05-16T18:18:09.050Z,11.10
2023-05-16T18:22:31.753Z,10.90
2023-05-16T18:26:54.053Z,10.70
2023-05-16T18:31:16.584Z,10.40
2023-05-16T18:35:38.993Z,10.10
2023-05-16T18:40:00.974Z,9.90
2023-05-16T18:44:23.218Z,9.60
2023-05-16T18:48:45.508Z,9.30
2023-05-16T18:53:08.204Z,9.10
2023-05-16T18:57:30.692Z,8.90
2023-05-16T19:01:52.532Z,8.60
2023-05-16T19:06:14.795Z,8.30
2023-05-16T19:10:38.737Z,8.00
2023-05-16T19:15:04.211Z,7.80
2023-05-16T19:19:28.901Z,7.60
2023-05-16T19:23:51.487Z,7.40
2023-05-16T19:28:15.569Z,7.20
2023-05-16T19:32:38.249Z,7.10
2023-05-16T19:37:02.388Z,7.00
2023-05-16T19:41:24.887Z,6.90
2023-05-16T19:45:47.355Z,6.80
2023-05-16T19:50:10.033Z,6.70
2023-05-16T19:54:32.219Z,6.60
2023-05-16T19:58:54.317Z,6.50
2023-05-16T20:03:16.559Z,6.40
2023-05-16T20:07:40.579Z,6.20
2023-05-16T20:12:03.322Z,6.10
2023-05-16T20:16:27.104Z,6.10
2023-05-16T20:20:49.182Z,6.00
2023-05-16T20:25:12.213Z,5.90
2023-05-16T20:29:34.456Z,5.90
2023-05-16T20:33:56.709Z,6.00
2023-05-16T20:38:19.246Z,6.00
2023-05-16T20:42:41.541Z,6.00
2023-05-16T20:47:03.795Z,6.00
2023-05-16T20:51:26.102Z,5.90
2023-05-16T20:55:48.327Z,5.80
2023-05-16T21:00:11.294Z,5.80
2023-05-16T21:04:33.580Z,5.70
2023-05-16T21:08:56.217Z,5.60
2023-05-16T21:13:18.456Z,5.50
2023-05-16T21:17:42.385Z,5.60
2023-05-16T21:22:05.600Z,5.60
2023-05-16T21:26:27.477Z,5.60
2023-05-16T21:30:49.310Z,5.60
2023-05-16T21:35:11.558Z,5.60
2023-05-16T21:39:33.782Z,5.60
2023-05-16T21:43:56.079Z,5.50
2023-05-16T21:48:20.966Z,5.50
2023-05-16T21:52:43.366Z,5.40
2023-05-16T21:57:06.687Z,5.40
2023-05-16T22:01:29.594Z,5.30
2023-05-16T22:05:51.686Z,5.30
2023-05-16T22:10:15.172Z,5.20
2023-05-16T22:14:37.360Z,5.20
2023-05-16T22:18:59.965Z,5.20
2023-05-16T22:23:22.322Z,5.20
2023-05-16T22:27:44.261Z,5.10
2023-05-16T22:32:10.865Z,5.10
2023-05-16T22:36:33.160Z,5.00
2023-05-16T22:40:55.528Z,5.00
2023-05-16T22:45:17.860Z,4.90
2023-05-16T22:49:40.252Z,4.90
2023-05-16T22:54:02.201Z,4.80
2023-05-16T22:58:24.460Z,4.70
2023-05-16T23:02:46.681Z,4.60
2023-05-16T23:07:08.518Z,4.40
2023-05-16T23:11:31.858Z,4.20
2023-05-16T23:15:54.017Z,4.10
2023-05-16T23:20:16.180Z,4.00
2023-05-16T23:24:38.178Z,3.90
2023-05-16T23:29:00.656Z,3.80
2023-05-16T23:33:22.675Z,3.70
2023-05-16T23:37:44.716Z,3.60
2023-05-16T23:42:06.897Z,3.50
2023-05-16T23:46:28.638Z,3.40
2023-05-16T23:50:51.756Z,3.30
2023-05-16T23:55:14.176Z,3.20
2023-05-16T23:59:36.140Z,3.10
